Time;durP1;ratioP1;P1;durP2;ratioP2;P2;SDS_P1;SDS_P2;PMS_P1;PMS_P2;Temp;Humidity;BMP_temperature;BMP_pressure;BME280_temperature;BME280_humidity;BME280_pressure;Samples;Min_cycle;Max_cycle;Signal;HPM_P1;HPM_P2
2023/07/02 00:00:14;;;;;;;10.83;4.40;;;;;;;;;;4973344;28;20303;-86
2023/07/02 00:02:43;;;;;;;6.27;3.03;;;;;;;;;;4972775;28;20237;-85
2023/07/02 00:05:12;;;;;;;11.03;4.07;;;;;;;;;;4973174;28;20212;-86
2023/07/02 00:07:40;;;;;;;9.33;4.57;;;;;;;;;;4972776;28;20193;-87
2023/07/02 00:10:10;;;;;;;6.30;4.30;;;;;;;;;;4972725;28;20239;-86
2023/07/02 00:12:39;;;;;;;10.73;4.67;;;;;;;;;;4972521;28;20259;-85
2023/07/02 00:15:08;;;;;;;3.93;2.97;;;;;;;;;;4972884;28;20209;-85
2023/07/02 00:17:39;;;;;;;8.47;4.03;;;;;;;;;;4972906;28;20210;-85
2023/07/02 00:20:14;;;;;;;7.70;4.53;;;;;;;;;;4972200;28;20266;-85
2023/07/02 00:22:44;;;;;;;5.73;3.60;;;;;;;;;;4972518;28;20197;-85
2023/07/02 00:25:14;;;;;;;8.17;4.33;;;;;;;;;;4972316;28;20304;-85
2023/07/02 00:27:43;;;;;;;11.90;6.00;;;;;;;;;;4972108;28;20228;-85
2023/07/02 00:30:12;;;;;;;4.23;3.87;;;;;;;;;;4971978;28;20212;-85
2023/07/02 00:32:42;;;;;;;5.20;2.27;;;;;;;;;;4972135;28;20208;-85
2023/07/02 00:35:10;;;;;;;14.37;5.90;;;;;;;;;;4972374;28;20201;-85
2023/07/02 00:37:39;;;;;;;9.00;4.53;;;;;;;;;;4971758;28;20204;-85
2023/07/02 00:40:08;;;;;;;12.30;5.37;;;;;;;;;;4972177;28;20273;-85
2023/07/02 00:42:37;;;;;;;9.13;3.47;;;;;;;;;;4972496;28;20201;-84
2023/07/02 00:45:06;;;;;;;16.60;4.50;;;;;;;;;;4971881;28;20201;-85
2023/07/02 00:47:36;;;;;;;6.20;4.17;;;;;;;;;;4971220;28;20236;-85
2023/07/02 00:50:09;;;;;;;11.53;6.37;;;;;;;;;;4971484;28;20241;-85
2023/07/02 00:52:38;;;;;;;19.77;6.40;;;;;;;;;;4971672;28;20206;-85
2023/07/02 00:55:07;;;;;;;12.73;5.90;;;;;;;;;;4971440;28;20234;-85
2023/07/02 00:57:36;;;;;;;18.33;5.53;;;;;;;;;;4971684;28;20229;-86
2023/07/02 01:00:06;;;;;;;9.90;3.73;;;;;;;;;;4972345;28;20323;-86
2023/07/02 01:02:35;;;;;;;9.63;5.10;;;;;;;;;;4971940;28;20277;-86
2023/07/02 01:05:03;;;;;;;11.50;3.77;;;;;;;;;;4971440;28;20204;-86
2023/07/02 01:07:33;;;;;;;8.00;4.17;;;;;;;;;;4971747;28;20227;-87
2023/07/02 01:10:01;;;;;;;16.83;4.90;;;;;;;;;;4971807;28;20232;-86
2023/07/02 01:12:30;;;;;;;13.10;4.50;;;;;;;;;;4971309;28;20276;-85
2023/07/02 01:15:01;;;;;;;11.93;6.30;;;;;;;;;;4971769;28;20209;-85
2023/07/02 01:17:37;;;;;;;9.63;3.80;;;;;;;;;;4971203;28;20214;-85
2023/07/02 01:20:08;;;;;;;6.90;3.93;;;;;;;;;;4971450;28;20299;-85
2023/07/02 01:22:38;;;;;;;7.20;5.00;;;;;;;;;;4971376;28;20212;-86
2023/07/02 01:25:08;;;;;;;14.50;5.87;;;;;;;;;;4971756;28;20204;-85
2023/07/02 01:27:37;;;;;;;16.53;3.30;;;;;;;;;;4971507;28;20255;-86
2023/07/02 01:30:07;;;;;;;6.70;4.10;;;;;;;;;;4971049;28;20216;-86
2023/07/02 01:32:36;;;;;;;9.10;3.83;;;;;;;;;;4971659;28;20218;-85
2023/07/02 01:35:04;;;;;;;7.37;4.37;;;;;;;;;;4971182;28;20284;-85
2023/07/02 01:37:37;;;;;;;7.77;3.93;;;;;;;;;;4971415;28;20231;-85
2023/07/02 01:40:06;;;;;;;10.37;4.70;;;;;;;;;;4970829;28;20202;-85
2023/07/02 01:42:34;;;;;;;11.33;5.03;;;;;;;;;;4971434;28;20212;-85
2023/07/02 01:45:03;;;;;;;9.03;4.50;;;;;;;;;;4971720;28;20212;-85
2023/07/02 01:47:32;;;;;;;5.13;3.57;;;;;;;;;;4970716;28;20256;-85
2023/07/02 01:50:01;;;;;;;11.30;5.00;;;;;;;;;;4970935;28;20250;-85
2023/07/02 01:52:32;;;;;;;5.13;2.63;;;;;;;;;;4971461;28;20338;-85
2023/07/02 01:55:03;;;;;;;9.40;6.03;;;;;;;;;;4970743;28;20215;-85
2023/07/02 01:57:32;;;;;;;5.17;4.30;;;;;;;;;;4970919;28;20236;-85
2023/07/02 02:00:01;;;;;;;5.43;4.27;;;;;;;;;;4970775;28;20242;-85
2023/07/02 02:02:29;;;;;;;29.30;7.77;;;;;;;;;;4970673;28;20264;-87
2023/07/02 02:04:58;;;;;;;9.57;4.27;;;;;;;;;;4970612;28;20204;-86
2023/07/02 02:07:26;;;;;;;10.90;4.70;;;;;;;;;;4970941;28;20255;-86
2023/07/02 02:09:55;;;;;;;10.63;4.40;;;;;;;;;;4971468;28;20200;-86
2023/07/02 02:12:25;;;;;;;13.63;5.57;;;;;;;;;;4970851;28;20207;-87
2023/07/02 02:14:53;;;;;;;16.47;6.13;;;;;;;;;;4970901;28;20220;-86
2023/07/02 02:17:23;;;;;;;8.80;5.93;;;;;;;;;;4971074;28;20203;-86
2023/07/02 02:19:52;;;;;;;7.00;3.33;;;;;;;;;;4971029;28;20209;-86
2023/07/02 02:22:20;;;;;;;6.77;3.93;;;;;;;;;;4970425;28;20236;-85
2023/07/02 02:24:49;;;;;;;8.37;3.80;;;;;;;;;;4970703;28;20296;-85
2023/07/02 02:27:17;;;;;;;8.97;4.80;;;;;;;;;;4970615;28;20232;-85
2023/07/02 02:29:47;;;;;;;21.13;5.40;;;;;;;;;;4970258;28;20208;-85
2023/07/02 02:32:19;;;;;;;5.90;3.53;;;;;;;;;;4970595;28;20207;-85
2023/07/02 02:34:48;;;;;;;10.97;6.00;;;;;;;;;;4970465;28;20193;-85
2023/07/02 02:37:16;;;;;;;18.50;4.30;;;;;;;;;;4970324;28;20202;-85
2023/07/02 02:39:44;;;;;;;7.47;4.77;;;;;;;;;;4969981;28;20233;-85
2023/07/02 02:42:13;;;;;;;11.57;5.50;;;;;;;;;;4970734;28;20203;-85
2023/07/02 02:44:41;;;;;;;10.63;4.80;;;;;;;;;;4970412;28;20212;-85
2023/07/02 02:47:11;;;;;;;16.40;5.40;;;;;;;;;;4970056;28;20222;-85
2023/07/02 02:49:40;;;;;;;10.50;4.27;;;;;;;;;;4969763;28;20203;-85
2023/07/02 02:52:08;;;;;;;7.60;3.47;;;;;;;;;;4970375;28;20204;-85
2023/07/02 02:54:37;;;;;;;18.70;6.50;;;;;;;;;;4970516;28;20216;-85
2023/07/02 02:57:06;;;;;;;12.23;6.57;;;;;;;;;;4970003;28;20200;-85
2023/07/02 02:59:34;;;;;;;4.80;2.67;;;;;;;;;;4970025;28;20293;-85
2023/07/02 03:02:02;;;;;;;15.43;5.90;;;;;;;;;;4970125;28;20212;-85
2023/07/02 03:04:33;;;;;;;13.43;7.00;;;;;;;;;;4970183;28;20213;-85
2023/07/02 03:07:02;;;;;;;12.90;5.60;;;;;;;;;;4969438;28;20215;-85
2023/07/02 03:09:31;;;;;;;19.73;9.97;;;;;;;;;;4970397;28;20208;-85
2023/07/02 03:11:59;;;;;;;4.83;2.50;;;;;;;;;;4970367;28;20215;-85
2023/07/02 03:14:28;;;;;;;19.00;5.47;;;;;;;;;;4973210;28;20222;-86
2023/07/02 03:16:56;;;;;;;7.20;4.00;;;;;;;;;;4973650;28;20213;-85
2023/07/02 03:19:25;;;;;;;18.57;6.33;;;;;;;;;;4974091;28;20216;-85
2023/07/02 03:21:55;;;;;;;14.50;6.83;;;;;;;;;;4973369;28;20208;-85
2023/07/02 03:24:23;;;;;;;8.90;3.20;;;;;;;;;;4973771;28;20208;-85
2023/07/02 03:26:52;;;;;;;16.33;7.90;;;;;;;;;;4973483;28;20213;-85
2023/07/02 03:29:20;;;;;;;20.63;6.33;;;;;;;;;;4973773;28;20212;-85
2023/07/02 03:31:49;;;;;;;8.90;3.70;;;;;;;;;;4972740;28;20200;-85
2023/07/02 03:34:17;;;;;;;17.80;8.00;;;;;;;;;;4974168;28;20214;-85
2023/07/02 03:36:46;;;;;;;6.67;3.40;;;;;;;;;;4973374;28;20218;-85
2023/07/02 03:39:16;;;;;;;13.70;6.20;;;;;;;;;;4972899;28;20195;-85
2023/07/02 03:41:44;;;;;;;6.83;3.67;;;;;;;;;;4973517;28;20211;-85
2023/07/02 03:44:13;;;;;;;6.47;3.83;;;;;;;;;;4973468;28;20230;-85
2023/07/02 03:46:41;;;;;;;11.90;4.77;;;;;;;;;;4972961;28;20303;-86
2023/07/02 03:49:10;;;;;;;9.37;3.17;;;;;;;;;;4972641;28;20236;-86
2023/07/02 03:51:39;;;;;;;13.03;5.37;;;;;;;;;;4973240;28;20213;-86
2023/07/02 03:54:07;;;;;;;11.50;5.77;;;;;;;;;;4973218;28;20208;-86
2023/07/02 03:56:37;;;;;;;15.63;8.80;;;;;;;;;;4972590;28;20203;-85
2023/07/02 03:59:06;;;;;;;12.67;6.10;;;;;;;;;;4972787;28;20233;-85
2023/07/02 04:01:34;;;;;;;11.17;6.90;;;;;;;;;;4972981;28;20203;-86
2023/07/02 04:04:03;;;;;;;11.77;5.00;;;;;;;;;;4972695;28;20260;-86
2023/07/02 04:06:31;;;;;;;6.77;2.77;;;;;;;;;;4972678;28;20213;-85
2023/07/02 04:09:00;;;;;;;13.97;6.20;;;;;;;;;;4972563;28;20295;-85
2023/07/02 04:11:28;;;;;;;12.57;5.33;;;;;;;;;;4972673;28;20203;-86
2023/07/02 04:13:58;;;;;;;10.10;5.33;;;;;;;;;;4972107;28;20270;-85
2023/07/02 04:16:27;;;;;;;11.13;5.93;;;;;;;;;;4972534;28;20215;-86
2023/07/02 04:18:55;;;;;;;8.03;3.37;;;;;;;;;;4972398;28;20232;-86
2023/07/02 04:21:24;;;;;;;5.37;2.47;;;;;;;;;;4972331;28;20210;-86
2023/07/02 04:23:52;;;;;;;12.50;5.10;;;;;;;;;;4971774;28;20212;-86
2023/07/02 04:26:21;;;;;;;6.03;3.77;;;;;;;;;;4972724;28;20208;-86
2023/07/02 04:29:12;;;;;;;6.63;5.23;;;;;;;;;;4972060;28;20266;-86
2023/07/02 04:31:40;;;;;;;7.10;3.53;;;;;;;;;;4972214;28;20203;-86
2023/07/02 04:34:09;;;;;;;7.60;3.33;;;;;;;;;;4972085;28;20206;-86
2023/07/02 04:36:37;;;;;;;7.10;3.63;;;;;;;;;;4972143;28;20206;-86
2023/07/02 04:39:06;;;;;;;14.57;4.67;;;;;;;;;;4971853;28;20212;-86
2023/07/02 04:41:34;;;;;;;6.60;3.93;;;;;;;;;;4972140;28;20230;-86
2023/07/02 04:44:03;;;;;;;8.20;3.90;;;;;;;;;;4972236;28;20238;-86
2023/07/02 04:46:34;;;;;;;6.73;4.17;;;;;;;;;;4972694;28;20216;-86
2023/07/02 04:49:03;;;;;;;5.00;3.83;;;;;;;;;;4971274;28;20228;-86
2023/07/02 04:51:31;;;;;;;13.77;5.37;;;;;;;;;;4972469;28;20208;-85
2023/07/02 04:54:00;;;;;;;12.67;5.80;;;;;;;;;;4972427;28;20194;-86
2023/07/02 04:56:28;;;;;;;9.97;5.43;;;;;;;;;;4972298;28;20277;-85
2023/07/02 04:58:57;;;;;;;11.40;4.93;;;;;;;;;;4971015;28;20228;-86
2023/07/02 05:01:25;;;;;;;7.47;3.83;;;;;;;;;;4972031;28;20200;-85
2023/07/02 05:03:55;;;;;;;15.37;3.97;;;;;;;;;;4971976;28;20262;-86
2023/07/02 05:06:24;;;;;;;7.63;3.83;;;;;;;;;;4971569;28;20293;-86
2023/07/02 05:08:52;;;;;;;7.53;4.13;;;;;;;;;;4971931;28;20323;-87
2023/07/02 05:11:21;;;;;;;8.30;3.77;;;;;;;;;;4972280;28;20201;-87
2023/07/02 05:13:49;;;;;;;6.83;3.53;;;;;;;;;;4971481;28;20231;-87
2023/07/02 05:16:18;;;;;;;15.43;5.27;;;;;;;;;;4971477;28;20209;-86
2023/07/02 05:18:47;;;;;;;11.43;5.23;;;;;;;;;;4971311;28;20197;-85
2023/07/02 05:21:19;;;;;;;9.77;4.97;;;;;;;;;;4972062;28;20224;-85
2023/07/02 05:23:48;;;;;;;8.60;6.37;;;;;;;;;;4971316;28;20208;-86
2023/07/02 05:26:16;;;;;;;7.27;3.27;;;;;;;;;;4971847;28;20219;-86
2023/07/02 05:28:45;;;;;;;11.37;5.67;;;;;;;;;;4971248;28;20239;-86
2023/07/02 05:31:14;;;;;;;5.00;2.83;;;;;;;;;;4971289;28;20225;-86
2023/07/02 05:33:42;;;;;;;13.50;4.90;;;;;;;;;;4971550;28;20216;-86
2023/07/02 05:36:11;;;;;;;16.07;4.13;;;;;;;;;;4970823;28;20204;-86
2023/07/02 05:38:41;;;;;;;9.47;5.10;;;;;;;;;;4971351;28;20208;-86
2023/07/02 05:41:09;;;;;;;9.40;4.00;;;;;;;;;;4970962;28;20211;-86
2023/07/02 05:43:38;;;;;;;10.47;3.67;;;;;;;;;;4971132;28;20204;-85
2023/07/02 05:46:06;;;;;;;8.60;3.70;;;;;;;;;;4971411;28;20209;-86
2023/07/02 05:48:35;;;;;;;12.20;6.50;;;;;;;;;;4971155;28;20232;-86
2023/07/02 05:51:03;;;;;;;10.47;5.53;;;;;;;;;;4970919;28;20211;-86
2023/07/02 05:53:32;;;;;;;7.07;4.37;;;;;;;;;;4971179;28;20209;-86
2023/07/02 05:56:02;;;;;;;6.03;3.33;;;;;;;;;;4970763;28;20207;-86
2023/07/02 05:58:30;;;;;;;12.67;5.10;;;;;;;;;;4970567;28;20214;-85
2023/07/02 06:01:15;;;;;;;10.90;6.23;;;;;;;;;;4971438;28;20219;-86
2023/07/02 06:03:45;;;;;;;6.03;3.37;;;;;;;;;;4970906;28;20207;-86
2023/07/02 06:06:14;;;;;;;6.40;3.13;;;;;;;;;;4970305;28;20205;-86
2023/07/02 06:08:42;;;;;;;8.67;3.37;;;;;;;;;;4970622;28;20270;-85
2023/07/02 06:11:12;;;;;;;6.07;2.60;;;;;;;;;;4970433;28;20201;-85
2023/07/02 06:13:40;;;;;;;7.50;4.20;;;;;;;;;;4970628;28;20196;-86
2023/07/02 06:16:09;;;;;;;13.03;4.27;;;;;;;;;;4970217;28;20232;-86
2023/07/02 06:18:38;;;;;;;12.60;6.10;;;;;;;;;;4970816;28;20239;-86
2023/07/02 06:21:06;;;;;;;11.23;3.53;;;;;;;;;;4970651;28;20215;-86
2023/07/02 06:23:41;;;;;;;11.40;5.73;;;;;;;;;;4970808;28;20219;-85
2023/07/02 06:26:09;;;;;;;8.13;4.00;;;;;;;;;;4970409;28;20208;-85
2023/07/02 06:28:40;;;;;;;7.47;3.83;;;;;;;;;;4971131;28;20224;-86
2023/07/02 06:31:08;;;;;;;10.13;4.87;;;;;;;;;;4970673;28;20205;-86
2023/07/02 06:33:40;;;;;;;29.07;6.13;;;;;;;;;;4970200;28;20307;-85
2023/07/02 06:36:08;;;;;;;7.30;3.70;;;;;;;;;;4970914;28;20207;-85
2023/07/02 06:38:40;;;;;;;13.23;5.73;;;;;;;;;;4970983;28;20259;-87
2023/07/02 06:41:09;;;;;;;8.87;3.67;;;;;;;;;;4970191;28;20277;-87
2023/07/02 06:43:37;;;;;;;14.37;5.37;;;;;;;;;;4970421;28;20209;-87
2023/07/02 06:46:07;;;;;;;4.57;2.63;;;;;;;;;;4970433;28;20208;-87
2023/07/02 06:48:36;;;;;;;9.10;4.17;;;;;;;;;;4970478;28;20205;-87
2023/07/02 06:51:04;;;;;;;12.23;5.20;;;;;;;;;;4970346;28;20225;-86
2023/07/02 06:53:33;;;;;;;10.07;4.67;;;;;;;;;;4970489;28;20219;-87
2023/07/02 06:56:01;;;;;;;6.33;3.40;;;;;;;;;;4970579;28;20216;-87
2023/07/02 06:58:30;;;;;;;9.33;3.67;;;;;;;;;;4970210;28;20210;-87
2023/07/02 07:00:59;;;;;;;7.60;2.73;;;;;;;;;;4970414;28;20225;-87
2023/07/02 07:03:29;;;;;;;10.47;4.43;;;;;;;;;;4970643;28;20205;-87
2023/07/02 07:05:57;;;;;;;12.80;5.70;;;;;;;;;;4970457;28;20201;-87
2023/07/02 07:08:26;;;;;;;9.70;4.93;;;;;;;;;;4969964;28;20259;-87
2023/07/02 07:10:54;;;;;;;5.83;3.30;;;;;;;;;;4970521;28;20261;-87
2023/07/02 07:13:23;;;;;;;5.37;3.17;;;;;;;;;;4970160;28;20264;-87
2023/07/02 07:15:51;;;;;;;9.17;3.67;;;;;;;;;;4970140;28;20216;-86
2023/07/02 07:18:20;;;;;;;10.07;3.17;;;;;;;;;;4969952;28;20209;-87
2023/07/02 07:20:50;;;;;;;11.13;4.90;;;;;;;;;;4970431;28;20190;-87
2023/07/02 07:23:19;;;;;;;13.90;4.43;;;;;;;;;;4970041;28;20234;-87
2023/07/02 07:25:47;;;;;;;9.57;4.13;;;;;;;;;;4969856;28;20212;-87
2023/07/02 07:28:16;;;;;;;7.00;3.63;;;;;;;;;;4970049;28;20234;-87
2023/07/02 07:30:45;;;;;;;6.90;3.13;;;;;;;;;;4969704;28;20215;-87
2023/07/02 07:33:13;;;;;;;10.60;3.87;;;;;;;;;;4969527;28;20277;-87
2023/07/02 07:35:42;;;;;;;13.90;5.10;;;;;;;;;;4970071;28;20204;-87
2023/07/02 07:38:14;;;;;;;8.73;4.33;;;;;;;;;;4969670;28;20296;-87
2023/07/02 07:40:44;;;;;;;5.10;3.13;;;;;;;;;;4970212;28;20211;-86
2023/07/02 07:43:12;;;;;;;5.87;3.10;;;;;;;;;;4969571;28;20232;-86
2023/07/02 07:45:41;;;;;;;9.57;3.63;;;;;;;;;;4969986;28;20209;-86
2023/07/02 07:48:10;;;;;;;8.43;3.43;;;;;;;;;;4969949;28;20235;-87
2023/07/02 07:50:38;;;;;;;7.83;2.63;;;;;;;;;;4969100;28;20213;-87
2023/07/02 07:53:06;;;;;;;7.80;3.37;;;;;;;;;;4969740;28;20204;-86
2023/07/02 07:55:36;;;;;;;9.10;4.17;;;;;;;;;;4969966;28;20217;-87
2023/07/02 07:58:05;;;;;;;15.87;3.60;;;;;;;;;;4969727;28;20205;-86
2023/07/02 08:00:33;;;;;;;5.37;3.73;;;;;;;;;;4972107;28;20237;-86
2023/07/02 08:03:03;;;;;;;7.43;4.73;;;;;;;;;;4973150;28;20204;-85
2023/07/02 08:05:32;;;;;;;11.60;5.33;;;;;;;;;;4973134;28;20211;-86
2023/07/02 08:08:00;;;;;;;6.70;2.97;;;;;;;;;;4972276;28;20289;-86
2023/07/02 08:10:29;;;;;;;9.73;3.43;;;;;;;;;;4972578;28;20248;-85
2023/07/02 08:12:59;;;;;;;7.27;2.97;;;;;;;;;;4973102;28;20205;-85
2023/07/02 08:15:27;;;;;;;5.00;2.53;;;;;;;;;;4972320;28;20265;-86
2023/07/02 08:17:58;;;;;;;7.80;5.27;;;;;;;;;;4972333;28;20205;-86
2023/07/02 08:20:27;;;;;;;9.70;3.83;;;;;;;;;;4972542;28;20247;-87
2023/07/02 08:22:55;;;;;;;3.87;2.77;;;;;;;;;;4972870;28;20223;-87
2023/07/02 08:25:26;;;;;;;10.80;5.50;;;;;;;;;;4972626;28;20208;-87
2023/07/02 08:27:55;;;;;;;8.43;3.67;;;;;;;;;;4972831;28;20227;-87
2023/07/02 08:30:25;;;;;;;5.93;3.13;;;;;;;;;;4972490;28;20238;-87
2023/07/02 08:32:55;;;;;;;8.80;5.07;;;;;;;;;;4972652;28;20208;-88
2023/07/02 08:35:24;;;;;;;16.70;5.93;;;;;;;;;;4971932;28;20197;-87
2023/07/02 08:37:52;;;;;;;8.37;4.10;;;;;;;;;;4973138;28;20209;-87
2023/07/02 08:40:21;;;;;;;7.07;2.80;;;;;;;;;;4972486;28;20201;-87
2023/07/02 08:42:49;;;;;;;5.73;2.90;;;;;;;;;;4972402;28;20216;-87
2023/07/02 08:45:18;;;;;;;8.10;4.50;;;;;;;;;;4972545;28;20299;-87
2023/07/02 08:47:50;;;;;;;9.07;4.57;;;;;;;;;;4972423;28;20311;-87
2023/07/02 08:50:19;;;;;;;5.23;3.30;;;;;;;;;;4971874;28;20260;-87
2023/07/02 08:52:48;;;;;;;13.53;5.77;;;;;;;;;;4971987;28;20209;-87
2023/07/02 08:55:16;;;;;;;4.50;2.40;;;;;;;;;;4972120;28;20199;-87
2023/07/02 08:57:51;;;;;;;15.90;4.10;;;;;;;;;;4972755;28;20220;-87
2023/07/02 09:00:21;;;;;;;6.77;2.77;;;;;;;;;;4971613;28;20348;-87
2023/07/02 09:02:51;;;;;;;10.90;4.93;;;;;;;;;;4971712;28;20205;-86
2023/07/02 09:05:20;;;;;;;6.27;2.57;;;;;;;;;;4972168;28;20259;-86
2023/07/02 09:07:49;;;;;;;10.40;3.30;;;;;;;;;;4972212;28;20247;-86
2023/07/02 09:10:28;;;;;;;9.83;3.77;;;;;;;;;;4971647;28;20306;-85
2023/07/02 09:13:06;;;;;;;8.50;4.73;;;;;;;;;;4971796;28;20295;-86
2023/07/02 09:15:38;;;;;;;7.10;2.83;;;;;;;;;;4972142;28;20250;-87
2023/07/02 09:18:21;;;;;;;8.57;3.07;;;;;;;;;;4971621;28;20254;-91
2023/07/02 09:20:52;;;;;;;6.70;2.63;;;;;;;;;;4971912;28;20227;-84
2023/07/02 09:23:20;;;;;;;13.07;4.97;;;;;;;;;;4971664;28;20220;-84
2023/07/02 09:25:49;;;;;;;13.07;5.73;;;;;;;;;;4971239;28;20197;-84
2023/07/02 09:28:19;;;;;;;5.40;3.37;;;;;;;;;;4971291;28;20335;-85
2023/07/02 09:30:51;;;;;;;13.80;4.47;;;;;;;;;;4972037;28;20220;-87
2023/07/02 09:33:21;;;;;;;10.23;4.03;;;;;;;;;;4971317;28;20206;-85
2023/07/02 09:35:51;;;;;;;8.93;4.00;;;;;;;;;;4971484;28;20258;-85
2023/07/02 09:38:20;;;;;;;1.33;1.23;;;;;;;;;;4971299;28;20219;-86
2023/07/02 09:40:53;;;;;;;8.97;3.67;;;;;;;;;;4971595;28;20204;-86
2023/07/02 09:43:22;;;;;;;9.00;2.50;;;;;;;;;;4971395;28;20223;-88
2023/07/02 09:45:52;;;;;;;3.60;2.30;;;;;;;;;;4971673;28;20205;-87
2023/07/02 09:48:25;;;;;;;12.47;4.80;;;;;;;;;;4971540;28;20201;-86
2023/07/02 09:50:54;;;;;;;4.43;3.40;;;;;;;;;;4971113;28;20217;-87
2023/07/02 09:53:35;;;;;;;9.27;3.43;;;;;;;;;;4970910;28;20208;-84
2023/07/02 09:56:03;;;;;;;8.30;3.93;;;;;;;;;;4971311;28;20208;-88
2023/07/02 09:58:32;;;;;;;8.03;4.93;;;;;;;;;;4972403;28;20208;-88
2023/07/02 10:01:00;;;;;;;7.93;4.33;;;;;;;;;;4971934;28;20197;-87
2023/07/02 10:03:31;;;;;;;2.43;1.53;;;;;;;;;;4972713;28;20215;-89
2023/07/02 10:06:08;;;;;;;4.93;2.67;;;;;;;;;;4972596;28;20189;-86
2023/07/02 10:08:37;;;;;;;8.17;3.47;;;;;;;;;;4971149;28;20204;-87
2023/07/02 10:11:09;;;;;;;5.80;3.33;;;;;;;;;;4970744;28;20316;-86
2023/07/02 10:13:38;;;;;;;6.47;2.90;;;;;;;;;;4970494;28;20231;-84
2023/07/02 10:16:07;;;;;;;6.83;4.00;;;;;;;;;;4970880;28;20216;-85
2023/07/02 10:18:37;;;;;;;5.63;3.27;;;;;;;;;;4969973;28;20221;-84
2023/07/02 10:21:16;;;;;;;4.70;2.40;;;;;;;;;;4970279;28;20212;-86
2023/07/02 10:23:45;;;;;;;5.97;3.93;;;;;;;;;;4970817;28;20244;-86
2023/07/02 10:26:18;;;;;;;10.23;3.23;;;;;;;;;;4970534;28;20202;-87
2023/07/02 10:28:57;;;;;;;8.30;4.00;;;;;;;;;;4970405;28;20231;-87
2023/07/02 10:31:26;;;;;;;8.73;4.83;;;;;;;;;;4971147;28;20256;-89
2023/07/02 10:33:56;;;;;;;13.13;3.33;;;;;;;;;;4970949;28;20258;-88
2023/07/02 10:36:25;;;;;;;8.13;3.57;;;;;;;;;;4970627;28;20202;-88
2023/07/02 10:38:53;;;;;;;8.33;4.17;;;;;;;;;;4970911;28;20209;-88
2023/07/02 10:41:25;;;;;;;6.27;3.80;;;;;;;;;;4970866;28;20202;-84
2023/07/02 10:43:54;;;;;;;9.50;4.23;;;;;;;;;;4970219;28;20207;-84
2023/07/02 10:46:23;;;;;;;6.03;4.10;;;;;;;;;;4970768;28;20209;-83
2023/07/02 10:48:57;;;;;;;5.50;3.20;;;;;;;;;;4970236;28;20233;-83
2023/07/02 10:51:28;;;;;;;4.93;3.50;;;;;;;;;;4970538;28;20210;-83
2023/07/02 10:54:00;;;;;;;8.60;5.20;;;;;;;;;;4970119;28;20196;-83
2023/07/02 10:56:28;;;;;;;3.37;2.67;;;;;;;;;;4970685;28;20205;-83
2023/07/02 10:58:57;;;;;;;11.93;3.37;;;;;;;;;;4970379;28;20232;-83
2023/07/02 11:01:26;;;;;;;17.60;5.23;;;;;;;;;;4970073;28;20263;-83
2023/07/02 11:04:00;;;;;;;4.83;2.70;;;;;;;;;;4972046;28;20201;-87
2023/07/02 11:06:29;;;;;;;4.07;2.30;;;;;;;;;;4971111;28;20201;-87
2023/07/02 11:08:57;;;;;;;11.20;3.30;;;;;;;;;;4970036;28;20197;-87
2023/07/02 11:11:26;;;;;;;11.43;4.07;;;;;;;;;;4970174;28;20244;-86
2023/07/02 11:13:54;;;;;;;3.87;2.70;;;;;;;;;;4970221;28;20204;-87
2023/07/02 11:16:25;;;;;;;5.47;2.57;;;;;;;;;;4970637;28;20215;-87
2023/07/02 11:18:54;;;;;;;7.63;4.10;;;;;;;;;;4969670;28;20265;-87
2023/07/02 11:21:24;;;;;;;7.47;3.67;;;;;;;;;;4970087;28;20224;-87
2023/07/02 11:24:02;;;;;;;6.23;2.87;;;;;;;;;;4970542;28;20213;-87
2023/07/02 11:26:36;;;;;;;9.57;4.03;;;;;;;;;;4969926;28;20254;-87
2023/07/02 11:29:05;;;;;;;8.53;3.50;;;;;;;;;;4969921;28;20253;-87
2023/07/02 11:31:33;;;;;;;5.90;3.47;;;;;;;;;;4970166;28;20233;-87
2023/07/02 11:34:02;;;;;;;6.63;3.53;;;;;;;;;;4970972;28;20289;-87
2023/07/02 11:36:32;;;;;;;14.53;5.57;;;;;;;;;;4973488;28;20273;-87
2023/07/02 11:39:00;;;;;;;5.63;2.37;;;;;;;;;;4973629;28;20265;-87
2023/07/02 11:41:37;;;;;;;7.90;3.57;;;;;;;;;;4973442;28;20198;-87
2023/07/02 11:44:06;;;;;;;4.40;2.37;;;;;;;;;;4973169;28;20303;-87
2023/07/02 11:46:35;;;;;;;4.77;3.73;;;;;;;;;;4972637;28;20198;-87
2023/07/02 11:49:04;;;;;;;6.90;2.20;;;;;;;;;;4973143;28;20215;-87
2023/07/02 11:51:34;;;;;;;7.23;2.70;;;;;;;;;;4973048;28;20208;-87
2023/07/02 11:54:02;;;;;;;6.80;4.13;;;;;;;;;;4972967;28;20209;-87
2023/07/02 11:56:31;;;;;;;6.87;4.40;;;;;;;;;;4973064;28;20247;-83
2023/07/02 11:58:59;;;;;;;11.83;4.77;;;;;;;;;;4972680;28;20230;-83
2023/07/02 12:01:32;;;;;;;7.93;3.87;;;;;;;;;;4972425;28;20235;-82
2023/07/02 12:04:01;;;;;;;8.13;2.87;;;;;;;;;;4972803;28;20255;-83
2023/07/02 12:06:29;;;;;;;5.53;3.73;;;;;;;;;;4973126;28;20209;-83
2023/07/02 12:08:59;;;;;;;11.90;5.93;;;;;;;;;;4972693;28;20204;-83
2023/07/02 12:11:28;;;;;;;8.60;3.93;;;;;;;;;;4972196;28;20203;-83
2023/07/02 12:13:56;;;;;;;8.20;3.47;;;;;;;;;;4972423;28;20270;-83
2023/07/02 12:16:25;;;;;;;6.90;3.07;;;;;;;;;;4972599;28;20218;-83
2023/07/02 12:18:54;;;;;;;5.83;2.47;;;;;;;;;;4972423;28;20239;-83
2023/07/02 12:21:22;;;;;;;13.83;2.57;;;;;;;;;;4972763;28;20217;-83
2023/07/02 12:23:50;;;;;;;18.43;3.83;;;;;;;;;;4973296;28;20198;-83
2023/07/02 12:26:20;;;;;;;11.10;6.93;;;;;;;;;;4972460;28;20203;-83
2023/07/02 12:28:49;;;;;;;8.90;3.93;;;;;;;;;;4971891;28;20239;-83
2023/07/02 12:31:17;;;;;;;7.53;3.17;;;;;;;;;;4972463;28;20298;-83
2023/07/02 12:33:46;;;;;;;3.80;2.00;;;;;;;;;;4972641;28;20223;-83
2023/07/02 12:36:15;;;;;;;10.27;4.53;;;;;;;;;;4972224;28;20240;-83
2023/07/02 12:38:44;;;;;;;3.37;2.60;;;;;;;;;;4972002;28;20213;-83
2023/07/02 12:41:12;;;;;;;11.57;5.10;;;;;;;;;;4972340;28;20207;-83
2023/07/02 12:43:42;;;;;;;13.13;6.37;;;;;;;;;;4972679;28;20209;-83
2023/07/02 12:46:10;;;;;;;8.60;3.10;;;;;;;;;;4971853;28;20216;-83
2023/07/02 12:48:39;;;;;;;2.20;1.67;;;;;;;;;;4972596;28;20307;-87
2023/07/02 12:51:07;;;;;;;6.17;4.13;;;;;;;;;;4972437;28;20200;-87
2023/07/02 12:53:36;;;;;;;9.33;2.97;;;;;;;;;;4972414;28;20230;-88
2023/07/02 12:56:05;;;;;;;10.67;3.70;;;;;;;;;;4971918;28;20211;-87
2023/07/02 12:58:33;;;;;;;7.60;3.30;;;;;;;;;;4972436;28;20219;-87
2023/07/02 13:01:03;;;;;;;8.70;3.27;;;;;;;;;;4972180;28;20205;-87
2023/07/02 13:03:32;;;;;;;4.23;3.57;;;;;;;;;;4971783;28;20227;-87
2023/07/02 13:06:00;;;;;;;4.70;3.33;;;;;;;;;;4972094;28;20304;-87
2023/07/02 13:08:29;;;;;;;9.57;5.37;;;;;;;;;;4971989;28;20207;-83
2023/07/02 13:10:57;;;;;;;5.43;2.37;;;;;;;;;;4971368;28;20193;-83
2023/07/02 13:13:26;;;;;;;3.30;1.90;;;;;;;;;;4971620;28;20213;-83
2023/07/02 13:15:54;;;;;;;4.83;2.47;;;;;;;;;;4971734;28;20201;-83
2023/07/02 13:18:24;;;;;;;7.00;4.37;;;;;;;;;;4971923;28;20209;-83
2023/07/02 13:20:53;;;;;;;5.03;2.63;;;;;;;;;;4971630;28;20232;-83
2023/07/02 13:23:21;;;;;;;2.23;1.93;;;;;;;;;;4971846;28;20206;-83
2023/07/02 13:25:50;;;;;;;7.00;2.47;;;;;;;;;;4971573;28;20208;-83
2023/07/02 13:28:20;;;;;;;6.17;3.13;;;;;;;;;;4971560;28;20240;-83
2023/07/02 13:30:49;;;;;;;8.87;4.03;;;;;;;;;;4971363;28;20206;-88
2023/07/02 13:33:18;;;;;;;5.57;3.60;;;;;;;;;;4971608;28;20241;-87
2023/07/02 13:35:48;;;;;;;5.90;3.00;;;;;;;;;;4971918;28;20203;-88
2023/07/02 13:38:16;;;;;;;3.87;2.97;;;;;;;;;;4971387;28;20213;-87
2023/07/02 13:40:45;;;;;;;4.13;2.17;;;;;;;;;;4971855;28;20201;-88
2023/07/02 13:43:14;;;;;;;3.47;2.50;;;;;;;;;;4972008;28;20203;-88
2023/07/02 13:45:42;;;;;;;6.87;4.17;;;;;;;;;;4971032;28;20208;-87
2023/07/02 13:48:10;;;;;;;7.67;3.33;;;;;;;;;;4971547;28;20201;-87
2023/07/02 13:50:39;;;;;;;6.03;2.07;;;;;;;;;;4971725;28;20243;-87
2023/07/02 13:53:09;;;;;;;3.90;2.57;;;;;;;;;;4971395;28;20228;-87
2023/07/02 13:55:38;;;;;;;5.80;3.13;;;;;;;;;;4971144;28;20209;-88
2023/07/02 13:58:06;;;;;;;5.20;3.47;;;;;;;;;;4970946;28;20207;-82
2023/07/02 14:00:36;;;;;;;4.27;2.93;;;;;;;;;;4970899;28;20237;-83
2023/07/02 14:03:05;;;;;;;6.83;3.30;;;;;;;;;;4970975;28;20253;-83
2023/07/02 14:05:34;;;;;;;2.87;2.60;;;;;;;;;;4970993;28;20209;-82
2023/07/02 14:08:03;;;;;;;9.43;3.97;;;;;;;;;;4971179;28;20213;-83
2023/07/02 14:10:32;;;;;;;3.60;2.07;;;;;;;;;;4970753;28;20213;-83
2023/07/02 14:13:00;;;;;;;6.97;3.03;;;;;;;;;;4970712;28;20202;-83
2023/07/02 14:15:29;;;;;;;3.87;2.70;;;;;;;;;;4970693;28;20210;-88
2023/07/02 14:17:58;;;;;;;7.80;3.97;;;;;;;;;;4971024;28;20212;-88
2023/07/02 14:20:27;;;;;;;10.10;5.17;;;;;;;;;;4970898;28;20221;-88
2023/07/02 14:22:55;;;;;;;4.60;2.77;;;;;;;;;;4970849;28;20250;-88
2023/07/02 14:25:24;;;;;;;4.13;2.73;;;;;;;;;;4971377;28;20284;-87
2023/07/02 14:28:08;;;;;;;7.00;3.77;;;;;;;;;;4971192;28;20222;-87
2023/07/02 14:30:38;;;;;;;7.60;3.33;;;;;;;;;;4970345;28;20208;-87
2023/07/02 14:33:07;;;;;;;17.50;3.13;;;;;;;;;;4970842;28;20210;-87
2023/07/02 14:35:36;;;;;;;5.10;2.40;;;;;;;;;;4971115;28;20205;-88
2023/07/02 14:38:04;;;;;;;5.67;2.47;;;;;;;;;;4970678;28;20247;-87
2023/07/02 14:40:33;;;;;;;7.97;2.57;;;;;;;;;;4971040;28;20213;-87
2023/07/02 14:43:03;;;;;;;6.00;3.20;;;;;;;;;;4970792;28;20206;-87
2023/07/02 14:45:32;;;;;;;8.67;3.83;;;;;;;;;;4970421;28;20201;-87
2023/07/02 14:48:01;;;;;;;3.03;2.20;;;;;;;;;;4970049;28;20207;-87
2023/07/02 14:50:31;;;;;;;3.30;1.93;;;;;;;;;;4971001;28;20303;-87